sensor_id;sensor_type;location;lat;lon;timestamp;P1;durP1;ratioP1;P2;durP2;ratioP2
39400;SDS011;54391;50.000;7.360;2022-07-23T00:01:07;11.40;;;7.55;;
39400;SDS011;54391;50.000;7.360;2022-07-23T00:03:34;14.32;;;7.97;;
39400;SDS011;54391;50.000;7.360;2022-07-23T00:06:02;13.32;;;8.98;;
39400;SDS011;54391;50.000;7.360;2022-07-23T00:08:29;11.98;;;7.80;;
39400;SDS011;54391;50.000;7.360;2022-07-23T00:10:58;14.82;;;8.98;;
39400;SDS011;54391;50.000;7.360;2022-07-23T00:13:27;11.65;;;7.75;;
39400;SDS011;54391;50.000;7.360;2022-07-23T00:15:55;13.20;;;8.20;;
39400;SDS011;54391;50.000;7.360;2022-07-23T00:18:22;12.80;;;9.02;;
39400;SDS011;54391;50.000;7.360;2022-07-23T00:20:50;14.75;;;9.23;;
39400;SDS011;54391;50.000;7.360;2022-07-23T00:23:17;14.63;;;8.93;;
39400;SDS011;54391;50.000;7.360;2022-07-23T00:25:45;13.77;;;8.65;;
39400;SDS011;54391;50.000;7.360;2022-07-23T00:28:13;15.98;;;8.32;;
39400;SDS011;54391;50.000;7.360;2022-07-23T00:30:41;15.32;;;9.32;;
39400;SDS011;54391;50.000;7.360;2022-07-23T00:33:09;15.27;;;9.15;;
39400;SDS011;54391;50.000;7.360;2022-07-23T00:35:37;14.82;;;9.45;;
39400;SDS011;54391;50.000;7.360;2022-07-23T00:38:07;13.50;;;8.27;;
39400;SDS011;54391;50.000;7.360;2022-07-23T00:40:36;16.23;;;9.10;;
39400;SDS011;54391;50.000;7.360;2022-07-23T00:43:04;14.65;;;9.48;;
39400;SDS011;54391;50.000;7.360;2022-07-23T00:45:32;18.42;;;9.82;;
39400;SDS011;54391;50.000;7.360;2022-07-23T00:48:00;13.70;;;9.25;;
39400;SDS011;54391;50.000;7.360;2022-07-23T00:50:29;15.38;;;9.70;;
39400;SDS011;54391;50.000;7.360;2022-07-23T00:52:56;14.40;;;8.70;;
39400;SDS011;54391;50.000;7.360;2022-07-23T00:55:24;14.75;;;9.40;;
39400;SDS011;54391;50.000;7.360;2022-07-23T00:57:51;13.93;;;9.68;;
39400;SDS011;54391;50.000;7.360;2022-07-23T01:00:20;15.90;;;10.23;;
39400;SDS011;54391;50.000;7.360;2022-07-23T01:02:50;16.20;;;10.20;;
39400;SDS011;54391;50.000;7.360;2022-07-23T01:05:17;14.25;;;9.15;;
39400;SDS011;54391;50.000;7.360;2022-07-23T01:07:47;15.50;;;10.07;;
39400;SDS011;54391;50.000;7.360;2022-07-23T01:10:15;15.38;;;9.63;;
39400;SDS011;54391;50.000;7.360;2022-07-23T01:12:58;16.30;;;9.95;;
39400;SDS011;54391;50.000;7.360;2022-07-23T01:15:26;17.30;;;10.40;;
39400;SDS011;54391;50.000;7.360;2022-07-23T01:17:55;16.70;;;10.85;;
39400;SDS011;54391;50.000;7.360;2022-07-23T01:20:22;17.65;;;10.43;;
39400;SDS011;54391;50.000;7.360;2022-07-23T01:22:52;17.08;;;10.38;;
39400;SDS011;54391;50.000;7.360;2022-07-23T01:25:20;15.43;;;10.25;;
39400;SDS011;54391;50.000;7.360;2022-07-23T01:27:54;16.10;;;8.43;;
39400;SDS011;54391;50.000;7.360;2022-07-23T01:30:22;20.30;;;11.07;;
39400;SDS011;54391;50.000;7.360;2022-07-23T01:32:50;19.15;;;11.05;;
39400;SDS011;54391;50.000;7.360;2022-07-23T01:35:18;18.55;;;11.68;;
39400;SDS011;54391;50.000;7.360;2022-07-23T01:37:46;21.58;;;11.90;;
39400;SDS011;54391;50.000;7.360;2022-07-23T01:40:15;18.80;;;11.60;;
39400;SDS011;54391;50.000;7.360;2022-07-23T01:42:43;21.20;;;12.70;;
39400;SDS011;54391;50.000;7.360;2022-07-23T01:45:12;18.48;;;12.18;;
39400;SDS011;54391;50.000;7.360;2022-07-23T01:47:43;20.35;;;12.52;;
39400;SDS011;54391;50.000;7.360;2022-07-23T01:50:11;22.25;;;12.35;;
39400;SDS011;54391;50.000;7.360;2022-07-23T01:52:43;21.77;;;12.55;;
39400;SDS011;54391;50.000;7.360;2022-07-23T01:55:11;23.92;;;12.90;;
39400;SDS011;54391;50.000;7.360;2022-07-23T01:57:43;22.50;;;12.93;;
39400;SDS011;54391;50.000;7.360;2022-07-23T02:00:12;21.95;;;13.07;;
39400;SDS011;54391;50.000;7.360;2022-07-23T02:02:40;22.33;;;12.88;;
39400;SDS011;54391;50.000;7.360;2022-07-23T02:05:07;22.98;;;12.85;;
39400;SDS011;54391;50.000;7.360;2022-07-23T02:07:36;22.40;;;13.20;;
39400;SDS011;54391;50.000;7.360;2022-07-23T02:10:04;22.67;;;13.63;;
39400;SDS011;54391;50.000;7.360;2022-07-23T02:12:32;21.48;;;14.15;;
39400;SDS011;54391;50.000;7.360;2022-07-23T02:15:01;25.85;;;14.80;;
39400;SDS011;54391;50.000;7.360;2022-07-23T02:17:29;24.42;;;12.98;;
39400;SDS011;54391;50.000;7.360;2022-07-23T02:19:56;26.40;;;14.63;;
39400;SDS011;54391;50.000;7.360;2022-07-23T02:22:24;25.23;;;13.93;;
39400;SDS011;54391;50.000;7.360;2022-07-23T02:24:51;22.35;;;14.07;;
39400;SDS011;54391;50.000;7.360;2022-07-23T02:27:19;25.85;;;14.48;;
39400;SDS011;54391;50.000;7.360;2022-07-23T02:29:46;29.23;;;15.52;;
39400;SDS011;54391;50.000;7.360;2022-07-23T02:32:15;27.35;;;14.85;;
39400;SDS011;54391;50.000;7.360;2022-07-23T02:34:43;24.92;;;13.55;;
39400;SDS011;54391;50.000;7.360;2022-07-23T02:37:11;26.92;;;13.82;;
39400;SDS011;54391;50.000;7.360;2022-07-23T02:39:38;27.15;;;14.98;;
39400;SDS011;54391;50.000;7.360;2022-07-23T02:42:06;25.92;;;16.02;;
39400;SDS011;54391;50.000;7.360;2022-07-23T02:44:34;27.95;;;15.40;;
39400;SDS011;54391;50.000;7.360;2022-07-23T02:47:01;26.77;;;15.85;;
39400;SDS011;54391;50.000;7.360;2022-07-23T02:49:30;27.00;;;15.13;;
39400;SDS011;54391;50.000;7.360;2022-07-23T02:52:02;27.20;;;14.93;;
39400;SDS011;54391;50.000;7.360;2022-07-23T02:54:30;28.52;;;16.02;;
39400;SDS011;54391;50.000;7.360;2022-07-23T02:56:57;26.38;;;14.93;;
39400;SDS011;54391;50.000;7.360;2022-07-23T02:59:25;24.70;;;15.45;;
39400;SDS011;54391;50.000;7.360;2022-07-23T03:01:53;27.42;;;15.98;;
39400;SDS011;54391;50.000;7.360;2022-07-23T03:04:20;28.80;;;15.63;;
39400;SDS011;54391;50.000;7.360;2022-07-23T03:06:49;28.10;;;15.45;;
39400;SDS011;54391;50.000;7.360;2022-07-23T03:09:17;31.27;;;15.25;;
39400;SDS011;54391;50.000;7.360;2022-07-23T03:11:45;28.63;;;15.20;;
39400;SDS011;54391;50.000;7.360;2022-07-23T03:14:12;28.45;;;15.80;;
39400;SDS011;54391;50.000;7.360;2022-07-23T03:16:42;22.52;;;14.25;;
39400;SDS011;54391;50.000;7.360;2022-07-23T03:19:09;23.45;;;13.90;;
39400;SDS011;54391;50.000;7.360;2022-07-23T03:21:36;28.20;;;14.27;;
39400;SDS011;54391;50.000;7.360;2022-07-23T03:24:08;24.17;;;14.40;;
39400;SDS011;54391;50.000;7.360;2022-07-23T03:26:36;22.88;;;12.82;;
39400;SDS011;54391;50.000;7.360;2022-07-23T03:29:03;24.98;;;14.75;;
39400;SDS011;54391;50.000;7.360;2022-07-23T03:31:30;24.92;;;14.40;;
39400;SDS011;54391;50.000;7.360;2022-07-23T03:33:58;26.55;;;14.90;;
39400;SDS011;54391;50.000;7.360;2022-07-23T03:36:28;26.10;;;14.80;;
39400;SDS011;54391;50.000;7.360;2022-07-23T03:38:56;26.88;;;14.82;;
39400;SDS011;54391;50.000;7.360;2022-07-23T03:41:25;24.75;;;14.57;;
39400;SDS011;54391;50.000;7.360;2022-07-23T03:43:53;27.33;;;14.63;;
39400;SDS011;54391;50.000;7.360;2022-07-23T03:46:20;28.40;;;15.00;;
39400;SDS011;54391;50.000;7.360;2022-07-23T03:48:48;26.75;;;14.10;;
39400;SDS011;54391;50.000;7.360;2022-07-23T03:51:15;27.20;;;14.07;;
39400;SDS011;54391;50.000;7.360;2022-07-23T03:53:42;24.55;;;15.05;;
39400;SDS011;54391;50.000;7.360;2022-07-23T03:56:09;24.75;;;14.45;;
39400;SDS011;54391;50.000;7.360;2022-07-23T03:58:38;26.77;;;14.13;;
39400;SDS011;54391;50.000;7.360;2022-07-23T04:01:05;25.63;;;14.98;;
39400;SDS011;54391;50.000;7.360;2022-07-23T04:03:33;23.30;;;14.05;;
39400;SDS011;54391;50.000;7.360;2022-07-23T04:06:01;23.38;;;12.85;;
39400;SDS011;54391;50.000;7.360;2022-07-23T04:08:29;26.48;;;15.23;;
39400;SDS011;54391;50.000;7.360;2022-07-23T04:10:59;27.98;;;15.07;;
39400;SDS011;54391;50.000;7.360;2022-07-23T04:13:27;25.02;;;13.82;;
39400;SDS011;54391;50.000;7.360;2022-07-23T04:15:56;27.55;;;15.35;;
39400;SDS011;54391;50.000;7.360;2022-07-23T04:18:23;22.50;;;13.48;;
39400;SDS011;54391;50.000;7.360;2022-07-23T04:20:57;22.80;;;14.07;;
39400;SDS011;54391;50.000;7.360;2022-07-23T04:23:25;24.10;;;13.57;;
39400;SDS011;54391;50.000;7.360;2022-07-23T04:25:52;26.73;;;14.20;;
39400;SDS011;54391;50.000;7.360;2022-07-23T04:28:19;22.33;;;13.48;;
39400;SDS011;54391;50.000;7.360;2022-07-23T04:30:47;24.55;;;13.20;;
39400;SDS011;54391;50.000;7.360;2022-07-23T04:33:17;23.67;;;13.48;;
39400;SDS011;54391;50.000;7.360;2022-07-23T04:35:47;24.50;;;13.60;;
39400;SDS011;54391;50.000;7.360;2022-07-23T04:38:18;24.02;;;14.57;;
39400;SDS011;54391;50.000;7.360;2022-07-23T04:40:48;21.17;;;13.32;;
39400;SDS011;54391;50.000;7.360;2022-07-23T04:43:16;23.73;;;14.00;;
39400;SDS011;54391;50.000;7.360;2022-07-23T04:45:45;27.33;;;14.93;;
39400;SDS011;54391;50.000;7.360;2022-07-23T04:48:13;23.02;;;13.60;;
39400;SDS011;54391;50.000;7.360;2022-07-23T04:50:43;26.70;;;14.55;;
39400;SDS011;54391;50.000;7.360;2022-07-23T04:53:21;23.70;;;14.38;;
39400;SDS011;54391;50.000;7.360;2022-07-23T04:55:52;26.25;;;15.52;;
39400;SDS011;54391;50.000;7.360;2022-07-23T04:58:20;31.58;;;16.52;;
39400;SDS011;54391;50.000;7.360;2022-07-23T05:00:48;25.02;;;15.68;;
39400;SDS011;54391;50.000;7.360;2022-07-23T05:03:16;26.65;;;14.60;;
39400;SDS011;54391;50.000;7.360;2022-07-23T05:05:47;23.10;;;15.02;;
39400;SDS011;54391;50.000;7.360;2022-07-23T05:08:17;27.52;;;14.75;;
39400;SDS011;54391;50.000;7.360;2022-07-23T05:10:49;28.48;;;15.13;;
39400;SDS011;54391;50.000;7.360;2022-07-23T05:13:18;27.05;;;15.20;;
39400;SDS011;54391;50.000;7.360;2022-07-23T05:15:45;27.05;;;15.13;;
39400;SDS011;54391;50.000;7.360;2022-07-23T05:18:13;25.05;;;14.80;;
39400;SDS011;54391;50.000;7.360;2022-07-23T05:20:41;26.67;;;15.43;;
39400;SDS011;54391;50.000;7.360;2022-07-23T05:23:11;25.65;;;14.88;;
39400;SDS011;54391;50.000;7.360;2022-07-23T05:25:40;23.63;;;14.23;;
39400;SDS011;54391;50.000;7.360;2022-07-23T05:28:08;25.13;;;13.45;;
39400;SDS011;54391;50.000;7.360;2022-07-23T05:30:35;26.42;;;14.65;;
39400;SDS011;54391;50.000;7.360;2022-07-23T05:33:06;25.17;;;12.80;;
39400;SDS011;54391;50.000;7.360;2022-07-23T05:35:34;23.83;;;13.43;;
39400;SDS011;54391;50.000;7.360;2022-07-23T05:38:29;22.13;;;14.00;;
39400;SDS011;54391;50.000;7.360;2022-07-23T05:40:58;24.02;;;12.93;;
39400;SDS011;54391;50.000;7.360;2022-07-23T05:43:28;23.13;;;13.98;;
39400;SDS011;54391;50.000;7.360;2022-07-23T05:45:59;21.85;;;12.73;;
39400;SDS011;54391;50.000;7.360;2022-07-23T05:48:27;25.15;;;14.05;;
39400;SDS011;54391;50.000;7.360;2022-07-23T05:51:02;24.27;;;13.30;;
39400;SDS011;54391;50.000;7.360;2022-07-23T05:53:33;24.33;;;13.32;;
39400;SDS011;54391;50.000;7.360;2022-07-23T05:56:08;24.80;;;13.35;;
39400;SDS011;54391;50.000;7.360;2022-07-23T05:58:36;21.30;;;12.30;;
39400;SDS011;54391;50.000;7.360;2022-07-23T06:01:04;22.42;;;12.95;;
39400;SDS011;54391;50.000;7.360;2022-07-23T06:03:39;19.77;;;12.90;;
39400;SDS011;54391;50.000;7.360;2022-07-23T06:06:07;23.58;;;13.68;;
39400;SDS011;54391;50.000;7.360;2022-07-23T06:08:36;24.88;;;13.98;;
39400;SDS011;54391;50.000;7.360;2022-07-23T06:11:06;26.98;;;14.38;;
39400;SDS011;54391;50.000;7.360;2022-07-23T06:13:35;22.88;;;12.88;;
39400;SDS011;54391;50.000;7.360;2022-07-23T06:16:02;23.92;;;13.90;;
39400;SDS011;54391;50.000;7.360;2022-07-23T06:18:30;20.95;;;13.15;;
39400;SDS011;54391;50.000;7.360;2022-07-23T06:20:58;21.90;;;12.85;;
39400;SDS011;54391;50.000;7.360;2022-07-23T06:23:31;21.48;;;12.45;;
39400;SDS011;54391;50.000;7.360;2022-07-23T06:26:00;21.02;;;12.65;;
39400;SDS011;54391;50.000;7.360;2022-07-23T06:28:36;21.73;;;13.15;;
39400;SDS011;54391;50.000;7.360;2022-07-23T06:31:04;22.27;;;12.05;;
39400;SDS011;54391;50.000;7.360;2022-07-23T06:33:32;21.65;;;12.02;;
39400;SDS011;54391;50.000;7.360;2022-07-23T06:36:00;15.18;;;9.43;;
39400;SDS011;54391;50.000;7.360;2022-07-23T06:38:27;18.50;;;11.27;;
39400;SDS011;54391;50.000;7.360;2022-07-23T06:40:55;17.17;;;10.65;;
39400;SDS011;54391;50.000;7.360;2022-07-23T06:43:24;17.67;;;10.77;;
39400;SDS011;54391;50.000;7.360;2022-07-23T06:45:54;17.52;;;10.43;;
39400;SDS011;54391;50.000;7.360;2022-07-23T06:48:21;16.65;;;10.65;;
39400;SDS011;54391;50.000;7.360;2022-07-23T06:50:49;13.20;;;9.15;;
39400;SDS011;54391;50.000;7.360;2022-07-23T06:53:20;16.83;;;9.15;;
39400;SDS011;54391;50.000;7.360;2022-07-23T06:55:48;17.05;;;10.20;;
39400;SDS011;54391;50.000;7.360;2022-07-23T06:58:15;13.65;;;7.88;;
39400;SDS011;54391;50.000;7.360;2022-07-23T07:00:46;10.88;;;7.30;;
39400;SDS011;54391;50.000;7.360;2022-07-23T07:03:13;13.23;;;7.63;;
39400;SDS011;54391;50.000;7.360;2022-07-23T07:05:42;10.48;;;7.47;;
39400;SDS011;54391;50.000;7.360;2022-07-23T07:08:10;11.93;;;7.45;;
39400;SDS011;54391;50.000;7.360;2022-07-23T07:10:37;14.07;;;7.60;;
39400;SDS011;54391;50.000;7.360;2022-07-23T07:13:04;14.57;;;7.85;;
39400;SDS011;54391;50.000;7.360;2022-07-23T07:15:32;10.10;;;6.63;;
39400;SDS011;54391;50.000;7.360;2022-07-23T07:18:01;10.48;;;6.38;;
39400;SDS011;54391;50.000;7.360;2022-07-23T07:20:28;11.98;;;7.32;;
39400;SDS011;54391;50.000;7.360;2022-07-23T07:22:56;10.30;;;6.97;;
39400;SDS011;54391;50.000;7.360;2022-07-23T07:25:23;10.82;;;7.97;;
39400;SDS011;54391;50.000;7.360;2022-07-23T07:27:50;13.55;;;7.32;;
39400;SDS011;54391;50.000;7.360;2022-07-23T07:30:18;13.85;;;7.85;;
39400;SDS011;54391;50.000;7.360;2022-07-23T07:32:45;11.90;;;7.82;;
39400;SDS011;54391;50.000;7.360;2022-07-23T07:35:14;15.40;;;9.50;;
39400;SDS011;54391;50.000;7.360;2022-07-23T07:37:42;10.27;;;6.97;;
39400;SDS011;54391;50.000;7.360;2022-07-23T07:40:10;11.52;;;7.60;;
39400;SDS011;54391;50.000;7.360;2022-07-23T07:42:44;12.35;;;7.93;;
39400;SDS011;54391;50.000;7.360;2022-07-23T07:45:12;10.07;;;7.45;;
39400;SDS011;54391;50.000;7.360;2022-07-23T07:47:39;11.85;;;6.57;;
39400;SDS011;54391;50.000;7.360;2022-07-23T07:50:06;10.55;;;6.20;;
39400;SDS011;54391;50.000;7.360;2022-07-23T07:52:36;14.50;;;7.13;;
39400;SDS011;54391;50.000;7.360;2022-07-23T07:55:04;10.02;;;7.30;;
39400;SDS011;54391;50.000;7.360;2022-07-23T07:57:32;12.27;;;7.75;;
39400;SDS011;54391;50.000;7.360;2022-07-23T08:00:00;10.57;;;6.38;;
39400;SDS011;54391;50.000;7.360;2022-07-23T08:02:41;12.75;;;7.97;;
39400;SDS011;54391;50.000;7.360;2022-07-23T08:05:10;9.27;;;6.22;;
39400;SDS011;54391;50.000;7.360;2022-07-23T08:07:39;9.18;;;6.35;;
39400;SDS011;54391;50.000;7.360;2022-07-23T08:10:08;9.13;;;6.30;;
39400;SDS011;54391;50.000;7.360;2022-07-23T08:12:40;12.25;;;6.47;;
39400;SDS011;54391;50.000;7.360;2022-07-23T08:15:10;11.13;;;7.05;;
39400;SDS011;54391;50.000;7.360;2022-07-23T08:17:38;8.27;;;5.75;;
39400;SDS011;54391;50.000;7.360;2022-07-23T08:20:05;11.15;;;6.38;;
39400;SDS011;54391;50.000;7.360;2022-07-23T08:22:42;10.13;;;6.75;;
39400;SDS011;54391;50.000;7.360;2022-07-23T08:25:11;10.18;;;6.07;;
39400;SDS011;54391;50.000;7.360;2022-07-23T08:27:39;12.60;;;6.80;;
39400;SDS011;54391;50.000;7.360;2022-07-23T08:30:06;9.75;;;6.43;;
39400;SDS011;54391;50.000;7.360;2022-07-23T08:32:47;9.00;;;6.22;;
39400;SDS011;54391;50.000;7.360;2022-07-23T08:35:15;9.52;;;6.15;;
39400;SDS011;54391;50.000;7.360;2022-07-23T08:37:44;9.02;;;6.13;;
39400;SDS011;54391;50.000;7.360;2022-07-23T08:40:11;10.30;;;6.85;;
39400;SDS011;54391;50.000;7.360;2022-07-23T08:42:39;9.70;;;6.05;;
39400;SDS011;54391;50.000;7.360;2022-07-23T08:45:07;9.20;;;6.20;;
39400;SDS011;54391;50.000;7.360;2022-07-23T08:47:35;9.68;;;6.40;;
39400;SDS011;54391;50.000;7.360;2022-07-23T08:50:04;8.68;;;6.50;;
39400;SDS011;54391;50.000;7.360;2022-07-23T08:52:34;10.50;;;6.63;;
39400;SDS011;54391;50.000;7.360;2022-07-23T08:55:05;10.32;;;6.53;;
39400;SDS011;54391;50.000;7.360;2022-07-23T08:57:34;8.98;;;6.07;;
39400;SDS011;54391;50.000;7.360;2022-07-23T09:00:03;8.65;;;6.45;;
39400;SDS011;54391;50.000;7.360;2022-07-23T09:02:34;7.75;;;5.65;;
39400;SDS011;54391;50.000;7.360;2022-07-23T09:05:05;11.05;;;6.43;;
39400;SDS011;54391;50.000;7.360;2022-07-23T09:07:35;8.65;;;5.95;;
39400;SDS011;54391;50.000;7.360;2022-07-23T09:10:08;8.82;;;6.35;;
39400;SDS011;54391;50.000;7.360;2022-07-23T09:12:37;11.98;;;6.53;;
39400;SDS011;54391;50.000;7.360;2022-07-23T09:15:05;9.27;;;5.75;;
39400;SDS011;54391;50.000;7.360;2022-07-23T09:17:36;7.28;;;5.63;;
39400;SDS011;54391;50.000;7.360;2022-07-23T09:20:09;13.02;;;5.45;;
39400;SDS011;54391;50.000;7.360;2022-07-23T09:22:39;7.97;;;5.75;;
39400;SDS011;54391;50.000;7.360;2022-07-23T09:25:13;8.27;;;5.55;;
39400;SDS011;54391;50.000;7.360;2022-07-23T09:27:46;8.75;;;5.55;;
39400;SDS011;54391;50.000;7.360;2022-07-23T09:30:19;7.75;;;5.18;;
39400;SDS011;54391;50.000;7.360;2022-07-23T09:33:06;8.13;;;5.28;;
39400;SDS011;54391;50.000;7.360;2022-07-23T09:35:44;6.47;;;4.85;;
39400;SDS011;54391;50.000;7.360;2022-07-23T09:38:13;7.30;;;5.00;;
39400;SDS011;54391;50.000;7.360;2022-07-23T09:40:42;9.48;;;5.25;;
39400;SDS011;54391;50.000;7.360;2022-07-23T09:43:10;6.78;;;4.57;;
39400;SDS011;54391;50.000;7.360;2022-07-23T09:45:38;18.35;;;9.73;;
39400;SDS011;54391;50.000;7.360;2022-07-23T09:48:12;8.57;;;5.20;;
39400;SDS011;54391;50.000;7.360;2022-07-23T09:50:42;9.35;;;4.78;;
39400;SDS011;54391;50.000;7.360;2022-07-23T09:53:10;9.85;;;5.30;;
39400;SDS011;54391;50.000;7.360;2022-07-23T09:55:52;7.10;;;4.80;;
39400;SDS011;54391;50.000;7.360;2022-07-23T09:58:24;8.65;;;5.25;;
39400;SDS011;54391;50.000;7.360;2022-07-23T10:00:53;6.78;;;5.00;;
39400;SDS011;54391;50.000;7.360;2022-07-23T10:03:20;6.53;;;5.22;;
39400;SDS011;54391;50.000;7.360;2022-07-23T10:06:08;6.45;;;4.68;;
39400;SDS011;54391;50.000;7.360;2022-07-23T10:08:55;7.03;;;4.82;;
39400;SDS011;54391;50.000;7.360;2022-07-23T10:11:44;6.72;;;4.43;;
39400;SDS011;54391;50.000;7.360;2022-07-23T10:14:32;6.35;;;4.38;;
39400;SDS011;54391;50.000;7.360;2022-07-23T10:17:03;8.13;;;5.20;;
39400;SDS011;54391;50.000;7.360;2022-07-23T10:19:30;7.90;;;4.47;;
39400;SDS011;54391;50.000;7.360;2022-07-23T10:21:59;6.20;;;4.25;;
39400;SDS011;54391;50.000;7.360;2022-07-23T10:24:30;7.10;;;4.30;;
39400;SDS011;54391;50.000;7.360;2022-07-23T10:29:51;6.28;;;3.90;;
39400;SDS011;54391;50.000;7.360;2022-07-23T10:32:26;5.53;;;4.20;;
39400;SDS011;54391;50.000;7.360;2022-07-23T10:35:05;5.57;;;4.25;;
39400;SDS011;54391;50.000;7.360;2022-07-23T10:37:38;5.70;;;4.43;;
39400;SDS011;54391;50.000;7.360;2022-07-23T10:40:08;7.43;;;5.10;;
39400;SDS011;54391;50.000;7.360;2022-07-23T10:42:38;8.85;;;4.60;;
39400;SDS011;54391;50.000;7.360;2022-07-23T10:45:27;6.95;;;4.38;;
39400;SDS011;54391;50.000;7.360;2022-07-23T10:48:12;7.50;;;4.28;;
39400;SDS011;54391;50.000;7.360;2022-07-23T10:50:41;7.70;;;4.93;;
39400;SDS011;54391;50.000;7.360;2022-07-23T10:53:10;7.50;;;4.38;;
39400;SDS011;54391;50.000;7.360;2022-07-23T10:55:42;7.57;;;4.50;;
39400;SDS011;54391;50.000;7.360;2022-07-23T10:58:17;9.23;;;5.00;;
39400;SDS011;54391;50.000;7.360;2022-07-23T11:00:49;8.63;;;5.00;;
39400;SDS011;54391;50.000;7.360;2022-07-23T11:03:33;7.22;;;4.97;;
39400;SDS011;54391;50.000;7.360;2022-07-23T11:06:03;6.85;;;4.78;;
39400;SDS011;54391;50.000;7.360;2022-07-23T11:08:32;8.85;;;5.05;;
39400;SDS011;54391;50.000;7.360;2022-07-23T11:11:10;8.27;;;5.53;;
39400;SDS011;54391;50.000;7.360;2022-07-23T11:13:40;7.70;;;4.78;;
39400;SDS011;54391;50.000;7.360;2022-07-23T11:16:20;6.30;;;5.07;;
39400;SDS011;54391;50.000;7.360;2022-07-23T11:22:03;9.02;;;5.43;;
39400;SDS011;54391;50.000;7.360;2022-07-23T11:24:31;7.15;;;5.20;;
39400;SDS011;54391;50.000;7.360;2022-07-23T11:27:17;6.55;;;4.93;;
39400;SDS011;54391;50.000;7.360;2022-07-23T11:30:05;5.55;;;4.50;;
39400;SDS011;54391;50.000;7.360;2022-07-23T11:32:35;6.30;;;4.82;;
39400;SDS011;54391;50.000;7.360;2022-07-23T11:35:26;7.80;;;4.47;;
39400;SDS011;54391;50.000;7.360;2022-07-23T11:38:04;6.10;;;5.28;;
39400;SDS011;54391;50.000;7.360;2022-07-23T11:40:32;7.85;;;5.07;;
39400;SDS011;54391;50.000;7.360;2022-07-23T11:43:01;8.02;;;5.40;;
39400;SDS011;54391;50.000;7.360;2022-07-23T11:45:33;10.40;;;5.18;;
39400;SDS011;54391;50.000;7.360;2022-07-23T11:48:03;9.45;;;5.32;;
39400;SDS011;54391;50.000;7.360;2022-07-23T11:50:33;6.85;;;5.10;;
39400;SDS011;54391;50.000;7.360;2022-07-23T11:53:01;7.50;;;4.53;;
39400;SDS011;54391;50.000;7.360;2022-07-23T11:55:29;6.18;;;4.75;;
39400;SDS011;54391;50.000;7.360;2022-07-23T11:57:57;6.68;;;5.30;;
39400;SDS011;54391;50.000;7.360;2022-07-23T12:00:28;7.97;;;4.90;;
39400;SDS011;54391;50.000;7.360;2022-07-23T12:02:58;7.03;;;5.50;;
39400;SDS011;54391;50.000;7.360;2022-07-23T12:05:29;7.88;;;4.78;;
39400;SDS011;54391;50.000;7.360;2022-07-23T12:07:58;6.68;;;5.18;;
39400;SDS011;54391;50.000;7.360;2022-07-23T12:10:30;7.60;;;5.40;;
39400;SDS011;54391;50.000;7.360;2022-07-23T12:13:01;9.02;;;5.60;;
39400;SDS011;54391;50.000;7.360;2022-07-23T12:15:30;7.32;;;5.57;;
39400;SDS011;54391;50.000;7.360;2022-07-23T12:18:00;9.50;;;4.85;;
39400;SDS011;54391;50.000;7.360;2022-07-23T12:20:29;7.30;;;4.90;;
39400;SDS011;54391;50.000;7.360;2022-07-23T12:22:59;9.30;;;5.10;;
39400;SDS011;54391;50.000;7.360;2022-07-23T12:25:29;8.18;;;5.30;;
39400;SDS011;54391;50.000;7.360;2022-07-23T12:27:58;5.72;;;4.80;;
39400;SDS011;54391;50.000;7.360;2022-07-23T12:30:29;6.97;;;4.72;;
39400;SDS011;54391;50.000;7.360;2022-07-23T12:32:58;6.78;;;5.32;;
39400;SDS011;54391;50.000;7.360;2022-07-23T12:35:36;8.05;;;5.20;;
39400;SDS011;54391;50.000;7.360;2022-07-23T12:38:07;12.25;;;4.93;;
39400;SDS011;54391;50.000;7.360;2022-07-23T12:40:36;5.80;;;4.65;;
39400;SDS011;54391;50.000;7.360;2022-07-23T12:43:08;6.10;;;4.45;;
39400;SDS011;54391;50.000;7.360;2022-07-23T12:45:41;7.75;;;5.03;;
39400;SDS011;54391;50.000;7.360;2022-07-23T12:48:16;9.65;;;5.60;;
39400;SDS011;54391;50.000;7.360;2022-07-23T12:50:49;7.32;;;5.38;;
39400;SDS011;54391;50.000;7.360;2022-07-23T12:53:19;9.80;;;5.55;;
39400;SDS011;54391;50.000;7.360;2022-07-23T12:55:49;8.25;;;5.25;;
39400;SDS011;54391;50.000;7.360;2022-07-23T12:58:17;8.40;;;5.00;;
39400;SDS011;54391;50.000;7.360;2022-07-23T13:01:03;4.97;;;4.40;;
39400;SDS011;54391;50.000;7.360;2022-07-23T13:03:36;8.10;;;5.00;;
39400;SDS011;54391;50.000;7.360;2022-07-23T13:06:06;13.52;;;5.53;;
39400;SDS011;54391;50.000;7.360;2022-07-23T13:08:36;8.35;;;5.28;;
39400;SDS011;54391;50.000;7.360;2022-07-23T13:11:05;9.30;;;4.47;;
39400;SDS011;54391;50.000;7.360;2022-07-23T13:13:33;9.55;;;4.85;;
39400;SDS011;54391;50.000;7.360;2022-07-23T13:16:01;7.43;;;4.80;;
39400;SDS011;54391;50.000;7.360;2022-07-23T13:18:29;7.60;;;5.38;;
39400;SDS011;54391;50.000;7.360;2022-07-23T13:20:58;7.05;;;5.30;;
39400;SDS011;54391;50.000;7.360;2022-07-23T13:23:26;9.10;;;5.55;;
39400;SDS011;54391;50.000;7.360;2022-07-23T13:25:53;6.18;;;4.68;;
39400;SDS011;54391;50.000;7.360;2022-07-23T13:28:21;6.68;;;4.68;;
39400;SDS011;54391;50.000;7.360;2022-07-23T13:30:50;6.80;;;4.95;;
39400;SDS011;54391;50.000;7.360;2022-07-23T13:33:18;6.13;;;4.75;;
39400;SDS011;54391;50.000;7.360;2022-07-23T13:35:47;6.45;;;4.60;;
39400;SDS011;54391;50.000;7.360;2022-07-23T13:38:17;8.23;;;4.85;;
39400;SDS011;54391;50.000;7.360;2022-07-23T13:40:45;5.63;;;4.63;;
39400;SDS011;54391;50.000;7.360;2022-07-23T13:43:14;10.00;;;4.65;;
39400;SDS011;54391;50.000;7.360;2022-07-23T13:45:43;7.72;;;5.18;;
39400;SDS011;54391;50.000;7.360;2022-07-23T13:48:11;8.48;;;4.90;;
39400;SDS011;54391;50.000;7.360;2022-07-23T13:50:39;5.15;;;4.30;;
39400;SDS011;54391;50.000;7.360;2022-07-23T13:53:09;6.07;;;4.47;;
39400;SDS011;54391;50.000;7.360;2022-07-23T13:55:39;6.72;;;4.40;;
39400;SDS011;54391;50.000;7.360;2022-07-23T13:58:08;8.30;;;4.72;;
39400;SDS011;54391;50.000;7.360;2022-07-23T14:00:36;9.38;;;5.03;;
39400;SDS011;54391;50.000;7.360;2022-07-23T14:03:05;7.78;;;5.10;;
39400;SDS011;54391;50.000;7.360;2022-07-23T14:05:33;6.90;;;5.20;;
39400;SDS011;54391;50.000;7.360;2022-07-23T14:08:00;7.10;;;4.38;;
39400;SDS011;54391;50.000;7.360;2022-07-23T14:10:28;6.68;;;4.82;;
39400;SDS011;54391;50.000;7.360;2022-07-23T14:12:57;6.20;;;4.57;;
39400;SDS011;54391;50.000;7.360;2022-07-23T14:15:25;7.38;;;4.65;;
39400;SDS011;54391;50.000;7.360;2022-07-23T14:17:53;6.50;;;4.93;;
39400;SDS011;54391;50.000;7.360;2022-07-23T14:20:21;6.43;;;4.60;;
39400;SDS011;54391;50.000;7.360;2022-07-23T14:22:49;7.25;;;4.82;;
39400;SDS011;54391;50.000;7.360;2022-07-23T14:25:16;7.32;;;5.03;;
39400;SDS011;54391;50.000;7.360;2022-07-23T14:27:44;6.68;;;5.00;;
39400;SDS011;54391;50.000;7.360;2022-07-23T14:30:13;6.20;;;4.55;;
39400;SDS011;54391;50.000;7.360;2022-07-23T14:32:41;5.85;;;4.70;;
39400;SDS011;54391;50.000;7.360;2022-07-23T14:35:08;5.82;;;4.57;;
39400;SDS011;54391;50.000;7.360;2022-07-23T14:37:36;5.93;;;4.72;;
39400;SDS011;54391;50.000;7.360;2022-07-23T14:40:05;8.43;;;4.93;;
39400;SDS011;54391;50.000;7.360;2022-07-23T14:42:33;5.95;;;4.35;;
39400;SDS011;54391;50.000;7.360;2022-07-23T14:45:01;7.43;;;5.07;;
39400;SDS011;54391;50.000;7.360;2022-07-23T14:47:32;5.47;;;4.78;;
39400;SDS011;54391;50.000;7.360;2022-07-23T14:49:59;9.55;;;4.85;;
39400;SDS011;54391;50.000;7.360;2022-07-23T14:52:27;8.18;;;4.30;;
39400;SDS011;54391;50.000;7.360;2022-07-23T14:54:54;6.10;;;4.63;;
39400;SDS011;54391;50.000;7.360;2022-07-23T14:57:21;7.43;;;4.65;;